Time;durP1;ratioP1;P1;durP2;ratioP2;P2;SDS_P1;SDS_P2;PMS_P1;PMS_P2;Temp;Humidity;BMP_temperature;BMP_pressure;BME280_temperature;BME280_humidity;BME280_pressure;Samples;Min_cycle;Max_cycle;Signal;HPM_P1;HPM_P2
2023/07/24 00:00:24;;;;;;;11.87;9.60;;;20.10;72.70;;;;;;5137482;27;20286;-44
2023/07/24 00:02:50;;;;;;;12.03;8.63;;;20.10;72.10;;;;;;5137732;27;20186;-47
2023/07/24 00:05:15;;;;;;;10.13;8.30;;;20.10;69.50;;;;;;5137970;27;20199;-47
2023/07/24 00:07:41;;;;;;;11.10;9.63;;;20.10;77.10;;;;;;5138753;27;20744;-46
2023/07/24 00:10:07;;;;;;;9.10;7.90;;;20.10;79.20;;;;;;5138161;27;20179;-47
2023/07/24 00:12:33;;;;;;;13.80;10.00;;;20.10;82.50;;;;;;5137648;27;20226;-47
2023/07/24 00:14:59;;;;;;;11.10;8.60;;;20.10;99.90;;;;;;5136010;27;20436;-48
2023/07/24 00:17:24;;;;;;;10.63;8.57;;;20.10;99.90;;;;;;5136965;27;20211;-44
2023/07/24 00:19:50;;;;;;;10.27;8.77;;;20.00;1.00;;;;;;5137762;27;20464;-50
2023/07/24 00:22:16;;;;;;;10.13;8.57;;;20.00;1.00;;;;;;5137523;27;20460;-46
2023/07/24 00:24:41;;;;;;;11.43;9.57;;;19.90;1.00;;;;;;5137541;27;20474;-44
2023/07/24 00:27:07;;;;;;;10.47;8.50;;;19.80;54.10;;;;;;5136751;27;20478;-45
2023/07/24 00:29:33;;;;;;;9.13;7.87;;;19.80;99.90;;;;;;5137805;27;20541;-44
2023/07/24 00:31:58;;;;;;;12.73;9.23;;;19.80;56.20;;;;;;5137441;27;20415;-45
2023/07/24 00:34:24;;;;;;;10.27;8.70;;;19.70;99.90;;;;;;5137188;27;20186;-48
2023/07/24 00:36:50;;;;;;;12.40;8.83;;;19.60;1.00;;;;;;5136671;27;20187;-46
2023/07/24 00:39:15;;;;;;;9.70;8.57;;;19.60;1.00;;;;;;5119065;27;20560;-43
2023/07/24 00:41:41;;;;;;;11.47;9.80;;;19.50;99.90;;;;;;5137173;27;20445;-48
2023/07/24 00:44:07;;;;;;;11.33;8.73;;;19.50;99.90;;;;;;5137052;27;20202;-46
2023/07/24 00:46:35;;;;;;;12.20;9.83;;;19.50;1.00;;;;;;5135940;27;20424;-47
2023/07/24 00:49:02;;;;;;;12.43;9.10;;;19.50;99.90;;;;;;5118040;27;20182;-49
2023/07/24 00:51:28;;;;;;;9.53;8.53;;;19.50;1.00;;;;;;5136597;27;20838;-44
2023/07/24 00:54:00;;;;;;;10.73;8.13;;;19.40;1.00;;;;;;5136385;27;20426;-45
2023/07/24 00:56:26;;;;;;;10.20;8.83;;;19.40;93.10;;;;;;5118697;27;20190;-46
2023/07/24 00:58:52;;;;;;;11.20;8.33;;;19.40;99.90;;;;;;5118465;27;20710;-44
2023/07/24 01:01:18;;;;;;;10.23;8.37;;;19.40;99.90;;;;;;5118564;27;20424;-47
2023/07/24 01:03:44;;;;;;;9.53;8.50;;;19.40;99.90;;;;;;5117899;27;20286;-45
2023/07/24 01:06:10;;;;;;;9.93;8.90;;;19.40;1.00;;;;;;5101380;27;20224;-48
2023/07/24 01:08:36;;;;;;;9.37;8.30;;;19.40;1.00;;;;;;5136723;27;20419;-43
2023/07/24 01:11:18;;;;;;;11.10;7.57;;;19.40;87.70;;;;;;5136219;27;20860;-49
2023/07/24 01:13:58;;;;;;;11.77;8.60;;;19.40;1.00;;;;;;5118519;28;20437;-49
2023/07/24 01:16:30;;;;;;;10.13;7.70;;;19.30;1.00;;;;;;5136342;28;20417;-47
2023/07/24 01:18:57;;;;;;;9.97;7.90;;;19.20;99.90;;;;;;5135789;28;20424;-46
2023/07/24 01:21:32;;;;;;;8.47;7.27;;;19.20;1.00;;;;;;5136041;28;20405;-46
2023/07/24 01:24:37;;;;;;;11.60;8.60;;;19.10;1.00;;;;;;5118210;28;20558;-47
2023/07/24 01:27:02;;;;;;;9.57;8.57;;;19.00;99.90;;;;;;5033261;28;20677;-46
2023/07/24 01:29:28;;;;;;;10.17;8.60;;;18.90;60.70;;;;;;5117363;28;20431;-44
2023/07/24 01:31:54;;;;;;;10.80;8.60;;;18.90;1.00;;;;;;5135762;28;20782;-47
2023/07/24 01:34:19;;;;;;;9.30;8.10;;;18.90;99.90;;;;;;5118256;28;20187;-44
2023/07/24 01:36:45;;;;;;;9.67;8.10;;;18.90;99.90;;;;;;5136517;28;20178;-45
2023/07/24 01:39:11;;;;;;;10.33;8.53;;;18.90;1.00;;;;;;5117695;28;20517;-47
2023/07/24 01:41:37;;;;;;;10.10;8.20;;;18.90;99.90;;;;;;5100077;28;20179;-45
2023/07/24 01:44:03;;;;;;;10.53;8.70;;;18.80;99.90;;;;;;5117332;28;20211;-44
2023/07/24 01:46:28;;;;;;;9.53;8.53;;;18.80;99.90;;;;;;5117693;28;20512;-46
2023/07/24 01:48:54;;;;;;;10.13;8.60;;;18.90;99.90;;;;;;5136316;28;20425;-44
2023/07/24 01:51:20;;;;;;;11.13;8.77;;;18.80;99.90;;;;;;5135991;28;20262;-44
2023/07/24 01:53:45;;;;;;;8.77;7.87;;;18.80;99.90;;;;;;5135757;28;20177;-44
2023/07/24 01:56:11;;;;;;;10.40;9.00;;;18.80;93.50;;;;;;5135199;28;20418;-44
2023/07/24 01:58:36;;;;;;;9.83;8.43;;;18.80;99.90;;;;;;5136175;27;20180;-46
2023/07/24 02:01:02;;;;;;;11.70;8.83;;;18.90;1.00;;;;;;5135631;28;20422;-45
2023/07/24 02:03:27;;;;;;;13.40;9.10;;;18.90;1.00;;;;;;5134845;28;20187;-44
2023/07/24 02:05:53;;;;;;;9.77;8.10;;;18.90;1.00;;;;;;5134625;28;20163;-45
2023/07/24 02:08:19;;;;;;;9.13;8.00;;;18.90;99.90;;;;;;5134655;28;20175;-48
2023/07/24 02:10:49;;;;;;;11.93;9.30;;;18.90;99.90;;;;;;5131999;28;20186;-47
2023/07/24 02:13:15;;;;;;;10.90;8.70;;;19.00;99.90;;;;;;5130868;28;20179;-45
2023/07/24 02:15:40;;;;;;;10.53;8.90;;;18.90;99.90;;;;;;5133754;28;20435;-45
2023/07/24 02:18:06;;;;;;;12.20;9.50;;;18.90;99.90;;;;;;5135146;27;20555;-47
2023/07/24 02:20:32;;;;;;;10.70;9.17;;;18.90;99.90;;;;;;5136916;27;20283;-47
2023/07/24 02:22:57;;;;;;;11.23;8.70;;;18.90;99.90;;;;;;5137939;27;20186;-45
2023/07/24 02:25:23;;;;;;;11.47;8.40;;;18.80;99.90;;;;;;5136858;27;20619;-46
2023/07/24 02:27:49;;;;;;;9.80;7.90;;;18.80;99.90;;;;;;5138271;27;20178;-46
2023/07/24 02:30:14;;;;;;;13.27;8.50;;;18.80;99.90;;;;;;5138214;27;20175;-44
2023/07/24 02:32:40;;;;;;;10.57;8.43;;;18.80;99.90;;;;;;5138931;27;20503;-45
2023/07/24 02:35:06;;;;;;;9.13;7.97;;;18.90;99.90;;;;;;5139552;27;20176;-44
2023/07/24 02:37:32;;;;;;;11.50;9.13;;;18.90;99.90;;;;;;5138887;27;20191;-45
2023/07/24 02:39:57;;;;;;;8.20;7.07;;;18.90;99.90;;;;;;5139616;27;20488;-46
2023/07/24 02:42:23;;;;;;;9.00;7.67;;;18.80;99.90;;;;;;5139282;27;20256;-46
2023/07/24 02:44:49;;;;;;;8.93;7.13;;;18.80;99.90;;;;;;5139280;27;20213;-43
2023/07/24 02:47:14;;;;;;;9.77;8.03;;;18.80;99.90;;;;;;5139185;27;20179;-44
2023/07/24 02:49:40;;;;;;;10.03;8.40;;;18.80;99.90;;;;;;5138779;27;20281;-48
2023/07/24 02:52:05;;;;;;;11.70;8.70;;;18.70;99.90;;;;;;5138726;27;20252;-46
2023/07/24 02:54:31;;;;;;;9.00;7.80;;;18.70;99.90;;;;;;5139440;27;20218;-47
2023/07/24 02:56:58;;;;;;;8.90;7.97;;;18.70;99.90;;;;;;5139252;27;20310;-44
2023/07/24 02:59:23;;;;;;;8.83;7.93;;;18.70;99.90;;;;;;5138796;27;20191;-47
2023/07/24 03:01:49;;;;;;;10.23;8.37;;;18.60;99.90;;;;;;5138645;27;20443;-48
2023/07/24 03:04:14;;;;;;;9.97;8.50;;;18.60;99.90;;;;;;5138823;27;20313;-46
2023/07/24 03:06:40;;;;;;;9.17;7.97;;;18.60;99.90;;;;;;5120592;27;20575;-48
2023/07/24 03:09:06;;;;;;;11.17;8.93;;;18.50;99.90;;;;;;5137360;27;20231;-45
2023/07/24 03:11:32;;;;;;;10.40;8.17;;;18.60;99.90;;;;;;5117856;27;20834;-45
2023/07/24 03:13:57;;;;;;;9.60;8.20;;;18.50;99.90;;;;;;5118249;28;20172;-44
2023/07/24 03:16:23;;;;;;;11.40;8.47;;;18.50;99.90;;;;;;5118035;28;20187;-45
2023/07/24 03:18:49;;;;;;;11.03;8.10;;;18.50;99.90;;;;;;5116106;28;20264;-45
2023/07/24 03:21:14;;;;;;;10.73;8.20;;;18.50;99.90;;;;;;5117641;28;20239;-48
2023/07/24 03:23:40;;;;;;;11.50;9.00;;;18.40;99.90;;;;;;5118037;28;20176;-46
2023/07/24 03:26:06;;;;;;;10.17;8.43;;;18.40;99.90;;;;;;5117425;28;20211;-47
2023/07/24 03:28:31;;;;;;;10.30;8.27;;;18.40;99.90;;;;;;5117243;28;20186;-46
2023/07/24 03:30:57;;;;;;;9.90;8.00;;;18.40;99.90;;;;;;5116629;28;20258;-46
2023/07/24 03:33:22;;;;;;;10.80;9.07;;;18.40;99.90;;;;;;5115178;28;20256;-46
2023/07/24 03:35:48;;;;;;;9.43;7.90;;;18.40;99.90;;;;;;5117357;28;20517;-47
2023/07/24 03:38:13;;;;;;;9.13;7.90;;;18.40;99.90;;;;;;5116201;28;20266;-45
2023/07/24 03:40:39;;;;;;;11.90;8.77;;;18.40;99.90;;;;;;5116246;28;20307;-45
2023/07/24 03:43:05;;;;;;;11.10;8.90;;;18.40;99.90;;;;;;5114570;28;20168;-44
2023/07/24 03:45:31;;;;;;;10.90;8.80;;;18.40;99.90;;;;;;5114946;28;20673;-44
2023/07/24 03:47:57;;;;;;;10.60;8.80;;;18.30;1.00;;;;;;5114593;28;20247;-46
2023/07/24 03:50:22;;;;;;;10.20;8.20;;;18.30;1.00;;;;;;5112303;28;20422;-45
2023/07/24 03:52:48;;;;;;;11.63;8.10;;;18.30;1.00;;;;;;5113935;28;20224;-44
2023/07/24 03:55:13;;;;;;;10.30;8.30;;;18.30;1.00;;;;;;5114936;27;20167;-43
2023/07/24 03:57:39;;;;;;;10.53;8.50;;;18.40;1.00;;;;;;5116414;28;20339;-46
2023/07/24 04:00:06;;;;;;;10.50;8.53;;;18.50;1.00;;;;;;5117021;28;20186;-43
2023/07/24 04:02:32;;;;;;;10.40;9.20;;;18.50;1.00;;;;;;5115017;28;20839;-49
2023/07/24 04:04:58;;;;;;;11.07;9.00;;;18.60;1.00;;;;;;5078332;28;20568;-49
2023/07/24 04:07:23;;;;;;;10.27;8.90;;;18.70;1.00;;;;;;5114248;28;20179;-49
2023/07/24 04:09:49;;;;;;;9.47;8.47;;;18.80;1.00;;;;;;5119687;27;20407;-47
2023/07/24 04:12:15;;;;;;;10.23;8.70;;;18.80;99.90;;;;;;5117623;27;20522;-46
2023/07/24 04:14:40;;;;;;;9.23;8.20;;;18.90;99.90;;;;;;5136186;27;20191;-46
2023/07/24 04:17:06;;;;;;;9.73;8.57;;;19.00;99.90;;;;;;5135507;27;20250;-48
2023/07/24 04:19:31;;;;;;;11.50;9.40;;;19.00;99.90;;;;;;5136817;27;20257;-47
2023/07/24 04:21:57;;;;;;;8.90;7.53;;;19.10;99.90;;;;;;5137176;27;20543;-46
2023/07/24 04:24:23;;;;;;;11.40;8.90;;;19.10;99.90;;;;;;5136352;27;20206;-49
2023/07/24 04:26:48;;;;;;;9.97;8.07;;;19.20;99.90;;;;;;5135910;27;20240;-50
2023/07/24 04:29:14;;;;;;;9.37;8.07;;;19.20;99.90;;;;;;5137172;27;20186;-47
2023/07/24 04:31:40;;;;;;;10.57;8.37;;;19.30;99.90;;;;;;5136681;27;20171;-47
2023/07/24 04:34:05;;;;;;;9.73;8.67;;;19.30;99.90;;;;;;5136241;27;20419;-52
2023/07/24 04:36:31;;;;;;;11.57;9.47;;;19.40;99.90;;;;;;5134920;27;20240;-49
2023/07/24 04:38:56;;;;;;;13.03;8.63;;;19.30;99.90;;;;;;5133657;27;20178;-47
2023/07/24 04:41:22;;;;;;;9.67;8.63;;;19.40;99.90;;;;;;5132793;27;20277;-47
2023/07/24 04:43:47;;;;;;;11.03;8.40;;;19.40;99.90;;;;;;5134040;27;20218;-50
2023/07/24 04:46:13;;;;;;;10.20;8.63;;;19.40;99.90;;;;;;5134332;27;20314;-47
2023/07/24 04:48:39;;;;;;;11.33;9.07;;;19.40;1.00;;;;;;5114333;27;20246;-48
2023/07/24 04:51:04;;;;;;;9.97;7.93;;;19.30;1.00;;;;;;5133976;27;20258;-47
2023/07/24 04:53:30;;;;;;;11.77;9.17;;;19.30;1.00;;;;;;5133766;27;20188;-47
2023/07/24 04:55:55;;;;;;;9.77;8.30;;;19.20;1.00;;;;;;5133699;27;20232;-49
2023/07/24 04:58:21;;;;;;;12.13;9.20;;;19.30;1.00;;;;;;5133149;27;20219;-48
2023/07/24 05:00:47;;;;;;;10.30;8.50;;;19.30;1.00;;;;;;5132262;27;20167;-49
2023/07/24 05:03:12;;;;;;;11.57;9.37;;;19.30;99.90;;;;;;5132198;27;20267;-46
2023/07/24 05:05:38;;;;;;;10.47;9.00;;;19.40;99.90;;;;;;5130777;27;20288;-47
2023/07/24 05:08:04;;;;;;;11.73;8.47;;;19.40;99.90;;;;;;5131136;27;20593;-47
2023/07/24 05:10:34;;;;;;;11.73;8.53;;;19.50;99.90;;;;;;5130288;27;20489;-47
2023/07/24 05:13:00;;;;;;;11.23;9.70;;;19.60;64.70;;;;;;5120658;27;20465;-50
2023/07/24 05:15:26;;;;;;;11.20;9.93;;;19.60;99.90;;;;;;5132838;27;20679;-49
2023/07/24 05:17:52;;;;;;;10.80;9.43;;;19.60;1.00;;;;;;5129824;27;20446;-49
2023/07/24 05:20:17;;;;;;;10.87;9.63;;;19.60;44.70;;;;;;5119118;28;20217;-48
2023/07/24 05:22:43;;;;;;;12.13;8.83;;;19.50;99.90;;;;;;5113359;28;20203;-50
2023/07/24 05:25:10;;;;;;;13.00;9.70;;;19.40;99.90;;;;;;5112846;28;20192;-48
2023/07/24 05:27:42;;;;;;;11.50;9.27;;;19.30;1.00;;;;;;5131127;28;20187;-48
2023/07/24 05:30:10;;;;;;;12.17;9.70;;;19.40;1.00;;;;;;5113175;28;20710;-51
2023/07/24 05:32:36;;;;;;;11.43;9.10;;;19.40;20.40;;;;;;5128719;28;20459;-49
2023/07/24 05:35:04;;;;;;;12.67;9.80;;;19.20;99.90;;;;;;5123553;28;20645;-47
2023/07/24 05:37:29;;;;;;;9.50;8.50;;;19.20;1.00;;;;;;5113274;28;20187;-49
2023/07/24 05:39:55;;;;;;;10.97;8.87;;;19.10;1.00;;;;;;5128814;28;20809;-48
2023/07/24 05:42:21;;;;;;;9.87;8.53;;;19.20;1.00;;;;;;5133453;28;20167;-48
2023/07/24 05:44:46;;;;;;;11.40;8.40;;;19.20;99.90;;;;;;5132022;28;20202;-49
2023/07/24 05:47:12;;;;;;;9.97;8.33;;;19.30;99.90;;;;;;5130611;28;20490;-48
2023/07/24 05:49:38;;;;;;;11.00;9.30;;;19.40;1.00;;;;;;5097489;28;20247;-51
2023/07/24 05:52:03;;;;;;;11.93;9.10;;;19.40;1.00;;;;;;5093528;28;20164;-50
2023/07/24 05:54:29;;;;;;;9.90;8.80;;;19.50;1.00;;;;;;5114688;28;20192;-49
2023/07/24 05:56:55;;;;;;;10.13;8.87;;;19.50;99.90;;;;;;5114568;28;20487;-49
2023/07/24 05:59:20;;;;;;;11.90;9.47;;;19.60;99.90;;;;;;5114780;28;20435;-49
2023/07/24 06:01:46;;;;;;;11.23;9.63;;;19.70;53.90;;;;;;5115516;28;20187;-47
2023/07/24 06:04:11;;;;;;;12.63;9.63;;;19.70;1.00;;;;;;5115716;28;20488;-53
2023/07/24 06:07:11;;;;;;;10.67;9.47;;;19.80;1.00;;;;;;5101575;28;20186;-49
2023/07/24 06:09:37;;;;;;;14.43;10.60;;;19.80;99.90;;;;;;5114857;28;20175;-53
2023/07/24 06:12:03;;;;;;;11.10;8.83;;;19.80;99.90;;;;;;5114889;28;20671;-48
2023/07/24 06:14:29;;;;;;;13.47;9.03;;;19.90;99.90;;;;;;5114528;27;20263;-50
2023/07/24 06:16:55;;;;;;;13.50;10.70;;;19.80;99.90;;;;;;5113134;27;20578;-49
2023/07/24 06:19:21;;;;;;;11.47;9.50;;;19.70;35.40;;;;;;5115334;27;20482;-50
2023/07/24 06:21:48;;;;;;;10.20;9.10;;;19.60;28.40;;;;;;5111714;28;20187;-51
2023/07/24 06:24:14;;;;;;;14.50;10.10;;;19.60;1.00;;;;;;5114114;28;20859;-48
2023/07/24 06:26:40;;;;;;;11.27;9.93;;;19.60;31.50;;;;;;5126661;27;20548;-50
2023/07/24 06:29:06;;;;;;;10.57;9.43;;;19.50;99.90;;;;;;5132807;27;20167;-49
2023/07/24 06:31:32;;;;;;;13.97;11.20;;;19.40;99.90;;;;;;5134797;27;20500;-49
2023/07/24 06:33:59;;;;;;;13.60;10.10;;;19.50;99.90;;;;;;5134387;27;20628;-50
2023/07/24 06:36:26;;;;;;;11.70;10.47;;;19.50;99.90;;;;;;5117181;27;20851;-47
2023/07/24 06:38:52;;;;;;;12.20;9.43;;;19.60;1.00;;;;;;5126333;27;20448;-49
2023/07/24 06:41:19;;;;;;;11.30;8.30;;;19.60;1.00;;;;;;5121187;27;20433;-46
2023/07/24 06:43:46;;;;;;;13.07;9.90;;;19.70;1.00;;;;;;5131531;27;20210;-48
2023/07/24 06:46:12;;;;;;;12.43;9.73;;;19.80;1.00;;;;;;5114709;28;20410;-49
2023/07/24 06:48:38;;;;;;;10.80;9.50;;;19.90;99.90;;;;;;5113815;28;20412;-48
2023/07/24 06:51:03;;;;;;;10.97;9.63;;;20.00;99.90;;;;;;5115993;28;20194;-48
2023/07/24 06:53:29;;;;;;;11.47;10.10;;;20.20;99.90;;;;;;5113839;28;20563;-50
2023/07/24 06:55:55;;;;;;;13.67;9.37;;;20.20;99.90;;;;;;5112960;28;20282;-50
2023/07/24 06:58:20;;;;;;;11.60;9.40;;;20.30;99.90;;;;;;5113768;28;20220;-50
2023/07/24 07:00:46;;;;;;;11.30;9.97;;;20.30;98.10;;;;;;5114233;28;20171;-47
2023/07/24 07:03:11;;;;;;;12.17;10.80;;;20.40;93.20;;;;;;5115801;28;20176;-50
2023/07/24 07:05:37;;;;;;;12.20;9.37;;;20.50;49.40;;;;;;5114686;28;20219;-48
2023/07/24 07:08:03;;;;;;;11.83;9.43;;;20.60;5.10;;;;;;5113617;28;20168;-48
2023/07/24 07:10:30;;;;;;;13.37;10.70;;;20.70;1.00;;;;;;5112644;28;20184;-51
2023/07/24 07:12:56;;;;;;;15.27;11.37;;;20.80;1.00;;;;;;5113379;28;20199;-50
2023/07/24 07:15:22;;;;;;;13.20;9.67;;;20.80;1.00;;;;;;5094001;28;20528;-50
2023/07/24 07:17:47;;;;;;;11.33;9.60;;;20.80;18.30;;;;;;5112973;28;20274;-47
2023/07/24 07:20:13;;;;;;;14.80;9.47;;;20.80;51.70;;;;;;5113214;28;20545;-53
2023/07/24 07:22:38;;;;;;;12.27;10.53;;;20.80;34.90;;;;;;5111361;28;20317;-47
2023/07/24 07:25:04;;;;;;;11.93;10.37;;;20.80;72.00;;;;;;5112107;28;20256;-44
2023/07/24 07:27:30;;;;;;;11.93;9.70;;;20.70;95.90;;;;;;5112487;28;20207;-47
2023/07/24 07:29:55;;;;;;;10.13;9.07;;;20.70;99.90;;;;;;5112795;28;20536;-48
2023/07/24 07:32:21;;;;;;;11.70;9.90;;;20.80;99.90;;;;;;5110926;28;20747;-50
2023/07/24 07:34:47;;;;;;;12.57;10.43;;;20.80;99.90;;;;;;5113735;28;20247;-48
2023/07/24 07:37:12;;;;;;;11.90;10.30;;;20.90;99.90;;;;;;5112115;28;20171;-46
2023/07/24 07:39:38;;;;;;;15.47;10.63;;;20.90;97.90;;;;;;5112875;28;20270;-46
2023/07/24 07:42:04;;;;;;;12.97;10.27;;;21.00;99.90;;;;;;5112999;28;20187;-47
2023/07/24 07:44:29;;;;;;;16.07;11.07;;;21.00;42.00;;;;;;5113177;28;20302;-47
2023/07/24 07:46:55;;;;;;;11.23;9.90;;;21.10;68.30;;;;;;5113792;28;20179;-46
2023/07/24 07:49:20;;;;;;;12.23;10.23;;;21.10;95.40;;;;;;5111986;28;20190;-48
2023/07/24 07:51:46;;;;;;;13.50;9.70;;;21.00;99.90;;;;;;5111959;28;20163;-50
2023/07/24 07:54:12;;;;;;;15.53;10.27;;;21.10;99.90;;;;;;5112983;28;20250;-48
2023/07/24 07:56:37;;;;;;;12.73;10.70;;;21.10;99.90;;;;;;5113692;28;20613;-48
2023/07/24 07:59:03;;;;;;;12.20;10.40;;;21.00;99.90;;;;;;5113110;28;20264;-49
2023/07/24 08:01:28;;;;;;;13.03;10.70;;;20.90;99.90;;;;;;5112065;28;20431;-50
2023/07/24 08:03:54;;;;;;;13.23;10.27;;;20.90;1.00;;;;;;5111436;28;20207;-49
2023/07/24 08:06:21;;;;;;;14.63;10.60;;;20.80;1.00;;;;;;5111368;28;20172;-48
2023/07/24 08:08:46;;;;;;;12.07;10.60;;;20.70;99.90;;;;;;5111322;28;20184;-46
2023/07/24 08:11:12;;;;;;;13.47;10.43;;;20.70;1.00;;;;;;5110002;28;20481;-49
2023/07/24 08:13:37;;;;;;;10.47;8.87;;;20.60;99.90;;;;;;5109007;28;20565;-48
2023/07/24 08:16:03;;;;;;;10.10;9.10;;;20.40;1.00;;;;;;5110840;28;20583;-46
2023/07/24 08:18:30;;;;;;;9.37;8.47;;;20.20;1.00;;;;;;5110753;28;20610;-47
2023/07/24 08:20:55;;;;;;;9.97;8.10;;;20.00;1.00;;;;;;5110130;28;20537;-45
2023/07/24 08:23:21;;;;;;;8.60;7.27;;;19.80;99.90;;;;;;5109517;28;20434;-49
2023/07/24 08:25:56;;;;;;;10.43;7.63;;;19.60;1.00;;;;;;5112442;28;20207;-49
2023/07/24 08:28:22;;;;;;;8.40;7.50;;;19.50;1.00;;;;;;5112873;28;20175;-49
2023/07/24 08:30:57;;;;;;;10.27;7.80;;;19.50;1.00;;;;;;5113194;28;20776;-47
2023/07/24 08:33:23;;;;;;;9.13;6.97;;;19.60;56.90;;;;;;5111984;28;20533;-48
2023/07/24 08:35:58;;;;;;;8.07;7.20;;;19.60;99.90;;;;;;5109289;28;20421;-47
2023/07/24 08:38:24;;;;;;;7.43;6.70;;;19.70;99.90;;;;;;5110008;28;20576;-48
2023/07/24 08:41:08;;;;;;;9.10;7.37;;;19.70;32.90;;;;;;5109577;28;20699;-48
2023/07/24 08:43:35;;;;;;;8.37;6.93;;;19.70;1.00;;;;;;5107877;28;20180;-48
2023/07/24 08:46:02;;;;;;;6.67;5.97;;;19.80;38.30;;;;;;5110297;28;20418;-47
2023/07/24 08:48:33;;;;;;;7.30;6.70;;;19.80;99.90;;;;;;5109354;28;20819;-48
2023/07/24 08:50:59;;;;;;;7.17;6.33;;;19.90;7.60;;;;;;5109943;28;20461;-48
2023/07/24 08:53:25;;;;;;;19.53;9.30;;;20.00;1.00;;;;;;5093402;28;20437;-48
2023/07/24 08:55:51;;;;;;;9.87;7.13;;;20.10;99.90;;;;;;5111879;28;20425;-48
2023/07/24 08:58:17;;;;;;;8.33;7.33;;;20.10;72.20;;;;;;5092662;28;20465;-47
2023/07/24 09:00:42;;;;;;;10.07;7.67;;;20.10;99.90;;;;;;5110949;28;20424;-50
2023/07/24 09:03:08;;;;;;;9.20;7.27;;;20.00;99.90;;;;;;5093523;28;20491;-46
2023/07/24 09:05:34;;;;;;;9.50;7.07;;;19.90;99.90;;;;;;5111659;28;20324;-46
2023/07/24 09:07:59;;;;;;;7.87;7.07;;;19.90;99.90;;;;;;5112144;28;20184;-48
2023/07/24 09:10:26;;;;;;;8.27;7.23;;;20.00;9.80;;;;;;5112282;28;20175;-47
2023/07/24 09:12:51;;;;;;;8.43;7.07;;;20.00;15.00;;;;;;5111186;28;20580;-45
2023/07/24 09:15:17;;;;;;;6.70;6.00;;;20.10;85.80;;;;;;5092683;28;20714;-45
2023/07/24 09:17:53;;;;;;;7.53;6.13;;;20.20;99.90;;;;;;5110348;28;20429;-47
2023/07/24 09:20:19;;;;;;;8.90;6.03;;;20.40;99.90;;;;;;5110002;28;20664;-47
2023/07/24 09:22:52;;;;;;;9.07;7.23;;;20.50;99.90;;;;;;5111649;28;20436;-47
2023/07/24 09:25:18;;;;;;;7.83;6.83;;;20.50;99.90;;;;;;5111653;28;20476;-47
2023/07/24 09:27:44;;;;;;;7.07;5.87;;;20.40;99.90;;;;;;5112280;28;20421;-48
2023/07/24 09:30:17;;;;;;;8.47;5.93;;;20.50;99.90;;;;;;5115279;28;20527;-48
2023/07/24 09:32:42;;;;;;;9.90;6.60;;;20.40;1.00;;;;;;5116513;28;20425;-43
2023/07/24 09:35:18;;;;;;;9.03;7.17;;;20.40;1.00;;;;;;5098028;28;20451;-47
2023/07/24 09:37:43;;;;;;;7.17;6.30;;;20.40;99.90;;;;;;5115980;28;20204;-46
2023/07/24 09:40:10;;;;;;;7.57;6.77;;;20.40;1.00;;;;;;5115552;28;20418;-48
2023/07/24 09:42:36;;;;;;;10.40;6.93;;;20.30;1.00;;;;;;5115856;28;20175;-52
2023/07/24 09:45:04;;;;;;;8.07;6.93;;;20.30;1.00;;;;;;5117785;28;20461;-48
2023/07/24 09:47:30;;;;;;;8.07;6.70;;;20.40;1.00;;;;;;5118701;28;20437;-50
2023/07/24 09:49:56;;;;;;;8.57;7.57;;;20.50;1.00;;;;;;5117635;28;20425;-49
2023/07/24 09:52:23;;;;;;;11.50;7.70;;;20.40;1.00;;;;;;5099522;28;20906;-47
2023/07/24 09:55:01;;;;;;;9.00;7.77;;;20.50;1.00;;;;;;5117568;28;20244;-48
2023/07/24 09:57:28;;;;;;;7.47;6.73;;;20.50;1.00;;;;;;5117309;28;20484;-48
2023/07/24 09:59:54;;;;;;;8.83;7.20;;;20.30;92.00;;;;;;5115932;28;20551;-48
2023/07/24 10:02:20;;;;;;;10.53;7.70;;;20.30;99.90;;;;;;5097094;28;20435;-49
2023/07/24 10:04:46;;;;;;;9.50;8.10;;;20.30;99.90;;;;;;5097617;28;20469;-48
2023/07/24 10:07:13;;;;;;;11.77;9.10;;;20.30;94.80;;;;;;5116523;28;20534;-49
2023/07/24 10:09:39;;;;;;;9.53;8.17;;;20.30;99.90;;;;;;5117075;28;20475;-48
2023/07/24 10:12:05;;;;;;;8.83;7.30;;;20.30;99.90;;;;;;5097596;28;20433;-47
2023/07/24 10:14:31;;;;;;;8.87;7.73;;;20.20;99.90;;;;;;5115103;28;20188;-50
2023/07/24 10:16:57;;;;;;;8.77;7.87;;;20.10;99.90;;;;;;5080550;28;20441;-49
2023/07/24 10:19:22;;;;;;;8.60;7.30;;;20.10;99.90;;;;;;5114055;28;20184;-49
2023/07/24 10:21:49;;;;;;;9.17;7.40;;;20.10;99.90;;;;;;5114571;28;20172;-49
2023/07/24 10:24:17;;;;;;;9.73;8.27;;;20.10;99.90;;;;;;5114480;28;20260;-46
2023/07/24 10:26:43;;;;;;;9.53;7.90;;;20.10;1.00;;;;;;5114002;28;20449;-47
2023/07/24 10:29:10;;;;;;;8.30;7.37;;;20.00;1.00;;;;;;5097372;28;20421;-47
2023/07/24 10:31:35;;;;;;;10.47;8.13;;;19.90;1.00;;;;;;5080639;28;20313;-47
2023/07/24 10:34:05;;;;;;;10.63;8.53;;;19.90;1.00;;;;;;5114794;28;20487;-45
2023/07/24 10:36:35;;;;;;;12.83;8.20;;;19.80;1.00;;;;;;5114541;28;20183;-46
2023/07/24 10:39:02;;;;;;;8.53;7.33;;;19.80;1.00;;;;;;5095056;28;20516;-46
2023/07/24 10:41:35;;;;;;;9.00;8.03;;;19.70;41.80;;;;;;5113043;28;21060;-45
2023/07/24 10:44:01;;;;;;;8.93;8.03;;;19.70;87.70;;;;;;5114602;28;20469;-46
2023/07/24 10:46:36;;;;;;;10.00;7.83;;;19.50;99.90;;;;;;5114217;28;20444;-47
2023/07/24 10:49:02;;;;;;;9.10;7.63;;;19.40;99.90;;;;;;5114842;28;20401;-48
2023/07/24 10:51:29;;;;;;;11.40;8.97;;;19.30;99.90;;;;;;5115868;28;20425;-47
2023/07/24 10:53:55;;;;;;;12.70;8.13;;;19.20;99.90;;;;;;5115365;28;20642;-47
2023/07/24 10:56:20;;;;;;;9.43;8.43;;;19.20;99.90;;;;;;5114181;28;20984;-50
2023/07/24 10:58:47;;;;;;;9.20;8.23;;;19.10;99.90;;;;;;5114485;28;20192;-46
2023/07/24 11:01:14;;;;;;;10.47;8.60;;;19.00;99.90;;;;;;5115110;28;20172;-48
2023/07/24 11:03:41;;;;;;;9.67;8.77;;;18.90;99.90;;;;;;5113954;28;20410;-49
2023/07/24 11:06:13;;;;;;;12.03;8.20;;;18.90;99.90;;;;;;5113367;28;20509;-47
2023/07/24 11:08:40;;;;;;;10.40;9.27;;;18.90;99.90;;;;;;5113555;28;20993;-47
2023/07/24 11:11:05;;;;;;;9.70;8.40;;;18.90;99.90;;;;;;5125641;27;21028;-49
2023/07/24 11:13:33;;;;;;;8.63;7.60;;;18.90;99.90;;;;;;5135155;27;20726;-48
2023/07/24 11:16:04;;;;;;;11.17;8.50;;;18.90;99.90;;;;;;5134126;27;20266;-48
2023/07/24 11:18:30;;;;;;;11.80;7.87;;;18.90;99.90;;;;;;5132144;27;20883;-46
2023/07/24 11:20:56;;;;;;;9.80;8.00;;;18.80;99.90;;;;;;5131719;27;20513;-45
2023/07/24 11:23:23;;;;;;;9.20;7.63;;;18.90;99.90;;;;;;5131414;27;20776;-47
2023/07/24 11:25:53;;;;;;;7.83;7.03;;;18.90;99.90;;;;;;5113482;27;20464;-48
2023/07/24 11:28:19;;;;;;;8.60;7.70;;;18.90;99.90;;;;;;5132499;27;20420;-47
2023/07/24 11:30:45;;;;;;;8.10;7.30;;;19.00;99.90;;;;;;5135428;27;20404;-51
2023/07/24 11:33:12;;;;;;;11.90;8.53;;;19.00;99.90;;;;;;5112887;27;20439;-48
2023/07/24 11:35:39;;;;;;;8.57;7.77;;;19.10;99.90;;;;;;5134388;27;20178;-47
2023/07/24 11:38:06;;;;;;;8.87;7.97;;;19.40;99.90;;;;;;5115950;27;20523;-49
2023/07/24 11:40:37;;;;;;;11.50;8.77;;;20.20;99.90;;;;;;5115119;27;20463;-47
2023/07/24 11:43:03;;;;;;;9.90;7.93;;;21.10;1.00;;;;;;5114969;27;21050;-47
2023/07/24 11:45:42;;;;;;;8.37;7.47;;;21.60;99.90;;;;;;5116100;27;20501;-49
2023/07/24 11:48:12;;;;;;;9.53;8.57;;;22.00;9.00;;;;;;5110673;28;20441;-46
2023/07/24 11:50:45;;;;;;;9.13;8.23;;;22.10;1.00;;;;;;5112083;28;20898;-47
2023/07/24 11:53:22;;;;;;;8.33;7.43;;;21.80;1.00;;;;;;5112753;28;20862;-50
2023/07/24 11:55:48;;;;;;;9.27;7.80;;;21.40;99.90;;;;;;5116126;27;20432;-46
2023/07/24 12:02:27;;;;;;;9.10;7.60;;;20.80;1.00;;;;;;5114290;27;20477;-47
2023/07/24 12:04:57;;;;;;;8.93;8.10;;;20.80;1.00;;;;;;5111726;28;20581;-46
2023/07/24 12:07:34;;;;;;;7.90;7.20;;;21.10;1.00;;;;;;5113535;28;20762;-52
2023/07/24 12:10:01;;;;;;;7.83;6.93;;;21.30;1.00;;;;;;5094728;28;20425;-48
2023/07/24 12:12:37;;;;;;;9.10;7.60;;;21.50;95.50;;;;;;5112599;28;20520;-47
2023/07/24 12:15:03;;;;;;;9.13;7.60;;;21.60;99.90;;;;;;5111352;28;20433;-48
2023/07/24 12:17:30;;;;;;;8.77;7.97;;;21.60;1.00;;;;;;5112512;28;20441;-46
2023/07/24 12:19:56;;;;;;;8.60;7.20;;;21.70;18.50;;;;;;5094929;28;21010;-48
2023/07/24 12:22:22;;;;;;;10.10;8.80;;;21.80;1.00;;;;;;5113484;28;20433;-46
2023/07/24 12:24:56;;;;;;;9.10;7.90;;;22.00;1.00;;;;;;5092792;28;20272;-50
2023/07/24 12:27:22;;;;;;;7.97;7.20;;;22.40;1.00;;;;;;5110811;28;20849;-48
2023/07/24 12:29:48;;;;;;;8.37;7.40;;;22.50;99.90;;;;;;5109970;28;20521;-47
2023/07/24 12:32:14;;;;;;;9.17;7.53;;;22.40;99.90;;;;;;5110903;28;20582;-50
2023/07/24 12:34:39;;;;;;;8.10;7.27;;;22.50;99.90;;;;;;5112011;28;20519;-49
2023/07/24 12:37:05;;;;;;;8.77;7.23;;;22.20;1.00;;;;;;5110750;28;20187;-49
2023/07/24 12:39:31;;;;;;;8.83;7.67;;;22.20;99.90;;;;;;5110691;28;20203;-46
2023/07/24 12:42:00;;;;;;;9.47;7.73;;;22.10;99.90;;;;;;5110584;28;20442;-48
2023/07/24 12:44:26;;;;;;;8.50;7.60;;;21.90;99.90;;;;;;5110158;28;20867;-48